sensor_id;sensor_type;location;lat;lon;timestamp;P1;durP1;ratioP1;P2;durP2;ratioP2
71566;SDS011;59403;47.456;19.120;2023-02-02T00:02:01;3.67;;;1.30;;
71566;SDS011;59403;47.456;19.120;2023-02-02T00:04:29;5.75;;;1.42;;
71566;SDS011;59403;47.456;19.120;2023-02-02T00:06:57;5.85;;;1.40;;
71566;SDS011;59403;47.456;19.120;2023-02-02T00:09:25;3.30;;;1.00;;
71566;SDS011;59403;47.456;19.120;2023-02-02T00:11:53;5.25;;;1.48;;
71566;SDS011;59403;47.456;19.120;2023-02-02T00:14:22;5.53;;;1.60;;
71566;SDS011;59403;47.456;19.120;2023-02-02T00:16:49;5.65;;;1.95;;
71566;SDS011;59403;47.456;19.120;2023-02-02T00:19:18;4.40;;;1.58;;
71566;SDS011;59403;47.456;19.120;2023-02-02T00:21:47;4.65;;;1.48;;
71566;SDS011;59403;47.456;19.120;2023-02-02T00:24:14;3.35;;;1.25;;
71566;SDS011;59403;47.456;19.120;2023-02-02T00:26:43;6.33;;;2.30;;
71566;SDS011;59403;47.456;19.120;2023-02-02T00:29:13;6.30;;;1.83;;
71566;SDS011;59403;47.456;19.120;2023-02-02T00:31:42;6.35;;;1.73;;
71566;SDS011;59403;47.456;19.120;2023-02-02T00:34:10;4.15;;;1.65;;
71566;SDS011;59403;47.456;19.120;2023-02-02T00:36:37;5.43;;;2.10;;
71566;SDS011;59403;47.456;19.120;2023-02-02T00:39:04;5.27;;;2.20;;
71566;SDS011;59403;47.456;19.120;2023-02-02T00:41:31;5.37;;;2.00;;
71566;SDS011;59403;47.456;19.120;2023-02-02T00:43:58;5.87;;;2.45;;
71566;SDS011;59403;47.456;19.120;2023-02-02T00:46:44;5.45;;;1.50;;
71566;SDS011;59403;47.456;19.120;2023-02-02T00:49:11;4.15;;;1.00;;
71566;SDS011;59403;47.456;19.120;2023-02-02T00:51:38;3.63;;;0.83;;
71566;SDS011;59403;47.456;19.120;2023-02-02T00:54:04;4.20;;;1.02;;
71566;SDS011;59403;47.456;19.120;2023-02-02T00:56:31;2.72;;;0.93;;
71566;SDS011;59403;47.456;19.120;2023-02-02T00:58:58;4.12;;;1.20;;
71566;SDS011;59403;47.456;19.120;2023-02-02T01:01:25;4.45;;;1.20;;
71566;SDS011;59403;47.456;19.120;2023-02-02T01:03:54;4.70;;;1.70;;
71566;SDS011;59403;47.456;19.120;2023-02-02T01:06:21;4.60;;;1.85;;
71566;SDS011;59403;47.456;19.120;2023-02-02T01:08:48;3.72;;;1.15;;
71566;SDS011;59403;47.456;19.120;2023-02-02T01:11:15;1.60;;;0.68;;
71566;SDS011;59403;47.456;19.120;2023-02-02T01:13:42;2.35;;;0.93;;
71566;SDS011;59403;47.456;19.120;2023-02-02T01:16:09;3.30;;;0.83;;
71566;SDS011;59403;47.456;19.120;2023-02-02T01:18:37;6.00;;;1.40;;
71566;SDS011;59403;47.456;19.120;2023-02-02T01:21:06;4.80;;;1.90;;
71566;SDS011;59403;47.456;19.120;2023-02-02T01:23:34;4.00;;;1.00;;
71566;SDS011;59403;47.456;19.120;2023-02-02T01:26:04;5.45;;;1.75;;
71566;SDS011;59403;47.456;19.120;2023-02-02T01:28:32;2.47;;;0.70;;
71566;SDS011;59403;47.456;19.120;2023-02-02T01:31:04;3.28;;;1.15;;
71566;SDS011;59403;47.456;19.120;2023-02-02T01:33:32;3.95;;;1.30;;
71566;SDS011;59403;47.456;19.120;2023-02-02T01:36:01;5.00;;;1.25;;
71566;SDS011;59403;47.456;19.120;2023-02-02T01:38:31;1.70;;;0.70;;
71566;SDS011;59403;47.456;19.120;2023-02-02T01:40:59;2.10;;;0.82;;
71566;SDS011;59403;47.456;19.120;2023-02-02T01:43:29;3.55;;;1.20;;
71566;SDS011;59403;47.456;19.120;2023-02-02T01:46:17;3.50;;;0.73;;
71566;SDS011;59403;47.456;19.120;2023-02-02T01:48:45;3.72;;;0.93;;
71566;SDS011;59403;47.456;19.120;2023-02-02T01:51:15;1.30;;;0.70;;
71566;SDS011;59403;47.456;19.120;2023-02-02T01:53:46;1.65;;;0.57;;
71566;SDS011;59403;47.456;19.120;2023-02-02T01:56:16;2.85;;;0.82;;
71566;SDS011;59403;47.456;19.120;2023-02-02T01:58:49;3.45;;;0.57;;
71566;SDS011;59403;47.456;19.120;2023-02-02T02:04:12;2.80;;;0.53;;
71566;SDS011;59403;47.456;19.120;2023-02-02T02:06:42;1.87;;;0.32;;
71566;SDS011;59403;47.456;19.120;2023-02-02T02:09:11;2.58;;;0.40;;
71566;SDS011;59403;47.456;19.120;2023-02-02T02:11:37;2.95;;;0.75;;
71566;SDS011;59403;47.456;19.120;2023-02-02T02:14:05;1.30;;;0.30;;
71566;SDS011;59403;47.456;19.120;2023-02-02T02:16:55;2.00;;;0.40;;
71566;SDS011;59403;47.456;19.120;2023-02-02T02:19:40;1.77;;;0.60;;
71566;SDS011;59403;47.456;19.120;2023-02-02T02:22:50;1.52;;;0.60;;
71566;SDS011;59403;47.456;19.120;2023-02-02T02:25:58;4.35;;;1.30;;
71566;SDS011;59403;47.456;19.120;2023-02-02T02:29:06;4.25;;;1.35;;
71566;SDS011;59403;47.456;19.120;2023-02-02T02:34:53;7.22;;;1.90;;
71566;SDS011;59403;47.456;19.120;2023-02-02T02:37:29;6.75;;;2.45;;
71566;SDS011;59403;47.456;19.120;2023-02-02T02:40:04;6.07;;;2.25;;
71566;SDS011;59403;47.456;19.120;2023-02-02T02:42:37;6.80;;;2.08;;
71566;SDS011;59403;47.456;19.120;2023-02-02T02:45:07;5.27;;;2.00;;
71566;SDS011;59403;47.456;19.120;2023-02-02T02:47:38;7.25;;;2.20;;
71566;SDS011;59403;47.456;19.120;2023-02-02T02:50:06;3.92;;;1.17;;
71566;SDS011;59403;47.456;19.120;2023-02-02T02:52:34;4.90;;;1.77;;
71566;SDS011;59403;47.456;19.120;2023-02-02T02:55:02;6.50;;;1.80;;
71566;SDS011;59403;47.456;19.120;2023-02-02T02:57:37;8.20;;;2.20;;
71566;SDS011;59403;47.456;19.120;2023-02-02T03:00:13;7.72;;;2.65;;
71566;SDS011;59403;47.456;19.120;2023-02-02T03:02:55;6.10;;;2.45;;
71566;SDS011;59403;47.456;19.120;2023-02-02T03:05:30;4.57;;;2.05;;
71566;SDS011;59403;47.456;19.120;2023-02-02T03:08:04;6.75;;;2.50;;
71566;SDS011;59403;47.456;19.120;2023-02-02T03:10:37;6.37;;;2.77;;
71566;SDS011;59403;47.456;19.120;2023-02-02T03:13:06;6.30;;;2.25;;
71566;SDS011;59403;47.456;19.120;2023-02-02T03:15:35;7.10;;;3.03;;
71566;SDS011;59403;47.456;19.120;2023-02-02T03:18:07;6.90;;;2.55;;
71566;SDS011;59403;47.456;19.120;2023-02-02T03:20:34;5.53;;;2.40;;
71566;SDS011;59403;47.456;19.120;2023-02-02T03:23:01;4.73;;;2.13;;
71566;SDS011;59403;47.456;19.120;2023-02-02T03:25:28;6.62;;;2.30;;
71566;SDS011;59403;47.456;19.120;2023-02-02T03:27:55;3.95;;;1.90;;
71566;SDS011;59403;47.456;19.120;2023-02-02T03:30:23;5.53;;;1.95;;
71566;SDS011;59403;47.456;19.120;2023-02-02T03:32:50;5.97;;;2.20;;
71566;SDS011;59403;47.456;19.120;2023-02-02T03:35:19;6.90;;;2.30;;
71566;SDS011;59403;47.456;19.120;2023-02-02T03:37:46;7.78;;;3.00;;
71566;SDS011;59403;47.456;19.120;2023-02-02T03:40:13;6.65;;;2.83;;
71566;SDS011;59403;47.456;19.120;2023-02-02T03:42:40;6.03;;;2.42;;
71566;SDS011;59403;47.456;19.120;2023-02-02T03:45:07;4.75;;;1.87;;
71566;SDS011;59403;47.456;19.120;2023-02-02T03:47:35;7.13;;;2.60;;
71566;SDS011;59403;47.456;19.120;2023-02-02T03:50:02;5.37;;;1.92;;
71566;SDS011;59403;47.456;19.120;2023-02-02T03:52:31;2.62;;;1.17;;
71566;SDS011;59403;47.456;19.120;2023-02-02T03:54:58;3.45;;;1.20;;
71566;SDS011;59403;47.456;19.120;2023-02-02T03:57:25;5.43;;;1.90;;
71566;SDS011;59403;47.456;19.120;2023-02-02T03:59:52;5.97;;;2.27;;
71566;SDS011;59403;47.456;19.120;2023-02-02T04:02:19;7.03;;;2.08;;
71566;SDS011;59403;47.456;19.120;2023-02-02T04:04:46;5.97;;;1.40;;
71566;SDS011;59403;47.456;19.120;2023-02-02T04:07:13;6.62;;;1.70;;
71566;SDS011;59403;47.456;19.120;2023-02-02T04:09:42;3.45;;;1.05;;
71566;SDS011;59403;47.456;19.120;2023-02-02T04:12:08;5.63;;;1.70;;
71566;SDS011;59403;47.456;19.120;2023-02-02T04:14:35;4.37;;;1.70;;
71566;SDS011;59403;47.456;19.120;2023-02-02T04:17:02;3.97;;;1.30;;
71566;SDS011;59403;47.456;19.120;2023-02-02T04:19:29;4.30;;;1.62;;
71566;SDS011;59403;47.456;19.120;2023-02-02T04:21:56;5.57;;;2.00;;
71566;SDS011;59403;47.456;19.120;2023-02-02T04:24:23;5.53;;;1.97;;
71566;SDS011;59403;47.456;19.120;2023-02-02T04:26:51;3.95;;;1.55;;
71566;SDS011;59403;47.456;19.120;2023-02-02T04:29:18;4.65;;;1.27;;
71566;SDS011;59403;47.456;19.120;2023-02-02T04:31:45;3.92;;;1.05;;
71566;SDS011;59403;47.456;19.120;2023-02-02T04:34:12;1.98;;;0.55;;
71566;SDS011;59403;47.456;19.120;2023-02-02T04:36:38;2.50;;;0.87;;
71566;SDS011;59403;47.456;19.120;2023-02-02T04:39:06;3.65;;;0.95;;
71566;SDS011;59403;47.456;19.120;2023-02-02T04:41:35;2.30;;;0.62;;
71566;SDS011;59403;47.456;19.120;2023-02-02T04:44:04;4.37;;;0.70;;
71566;SDS011;59403;47.456;19.120;2023-02-02T04:46:34;3.92;;;0.60;;
71566;SDS011;59403;47.456;19.120;2023-02-02T04:49:01;2.17;;;0.70;;
71566;SDS011;59403;47.456;19.120;2023-02-02T04:51:28;3.97;;;1.08;;
71566;SDS011;59403;47.456;19.120;2023-02-02T04:53:55;2.08;;;0.60;;
71566;SDS011;59403;47.456;19.120;2023-02-02T04:56:22;18.92;;;7.90;;
71566;SDS011;59403;47.456;19.120;2023-02-02T04:58:52;13.62;;;5.80;;
71566;SDS011;59403;47.456;19.120;2023-02-02T05:01:21;9.17;;;2.73;;
71566;SDS011;59403;47.456;19.120;2023-02-02T05:03:48;4.55;;;1.20;;
71566;SDS011;59403;47.456;19.120;2023-02-02T05:06:15;4.28;;;1.42;;
71566;SDS011;59403;47.456;19.120;2023-02-02T05:08:43;3.12;;;1.05;;
71566;SDS011;59403;47.456;19.120;2023-02-02T05:11:12;3.87;;;0.98;;
71566;SDS011;59403;47.456;19.120;2023-02-02T05:13:43;4.90;;;1.10;;
71566;SDS011;59403;47.456;19.120;2023-02-02T05:16:11;4.60;;;1.30;;
71566;SDS011;59403;47.456;19.120;2023-02-02T05:18:39;6.70;;;1.60;;
71566;SDS011;59403;47.456;19.120;2023-02-02T05:21:06;4.18;;;1.48;;
71566;SDS011;59403;47.456;19.120;2023-02-02T05:23:33;3.75;;;0.80;;
71566;SDS011;59403;47.456;19.120;2023-02-02T05:26:00;4.43;;;1.43;;
71566;SDS011;59403;47.456;19.120;2023-02-02T05:28:27;7.57;;;2.00;;
71566;SDS011;59403;47.456;19.120;2023-02-02T05:30:54;6.22;;;1.92;;
71566;SDS011;59403;47.456;19.120;2023-02-02T05:33:21;4.37;;;1.20;;
71566;SDS011;59403;47.456;19.120;2023-02-02T05:35:49;5.10;;;0.90;;
71566;SDS011;59403;47.456;19.120;2023-02-02T05:38:16;5.67;;;1.43;;
71566;SDS011;59403;47.456;19.120;2023-02-02T05:40:43;6.05;;;1.80;;
71566;SDS011;59403;47.456;19.120;2023-02-02T05:43:10;6.22;;;1.58;;
71566;SDS011;59403;47.456;19.120;2023-02-02T05:45:37;4.80;;;1.33;;
71566;SDS011;59403;47.456;19.120;2023-02-02T05:48:04;4.97;;;0.90;;
71566;SDS011;59403;47.456;19.120;2023-02-02T05:50:31;4.93;;;1.20;;
71566;SDS011;59403;47.456;19.120;2023-02-02T05:52:59;5.35;;;2.25;;
71566;SDS011;59403;47.456;19.120;2023-02-02T05:55:26;6.55;;;1.92;;
71566;SDS011;59403;47.456;19.120;2023-02-02T05:57:53;3.62;;;1.00;;
71566;SDS011;59403;47.456;19.120;2023-02-02T06:00:20;7.68;;;2.55;;
71566;SDS011;59403;47.456;19.120;2023-02-02T06:02:48;5.30;;;1.70;;
71566;SDS011;59403;47.456;19.120;2023-02-02T06:05:14;3.58;;;1.00;;
71566;SDS011;59403;47.456;19.120;2023-02-02T06:07:41;2.92;;;1.05;;
71566;SDS011;59403;47.456;19.120;2023-02-02T06:10:10;4.45;;;1.10;;
71566;SDS011;59403;47.456;19.120;2023-02-02T06:12:37;2.62;;;1.20;;
71566;SDS011;59403;47.456;19.120;2023-02-02T06:15:04;6.37;;;1.90;;
71566;SDS011;59403;47.456;19.120;2023-02-02T06:17:32;5.82;;;2.50;;
71566;SDS011;59403;47.456;19.120;2023-02-02T06:19:59;13.60;;;4.40;;
71566;SDS011;59403;47.456;19.120;2023-02-02T06:22:25;10.40;;;4.18;;
71566;SDS011;59403;47.456;19.120;2023-02-02T06:24:54;12.15;;;4.50;;
71566;SDS011;59403;47.456;19.120;2023-02-02T06:27:22;10.77;;;4.30;;
71566;SDS011;59403;47.456;19.120;2023-02-02T06:29:49;11.55;;;4.32;;
71566;SDS011;59403;47.456;19.120;2023-02-02T06:32:16;11.80;;;4.47;;
71566;SDS011;59403;47.456;19.120;2023-02-02T06:34:43;11.90;;;4.43;;
71566;SDS011;59403;47.456;19.120;2023-02-02T06:37:10;13.60;;;4.25;;
71566;SDS011;59403;47.456;19.120;2023-02-02T06:39:37;8.37;;;2.90;;
71566;SDS011;59403;47.456;19.120;2023-02-02T06:42:04;6.47;;;2.05;;
71566;SDS011;59403;47.456;19.120;2023-02-02T06:44:32;4.32;;;1.48;;
71566;SDS011;59403;47.456;19.120;2023-02-02T06:46:59;3.15;;;1.45;;
71566;SDS011;59403;47.456;19.120;2023-02-02T06:49:26;5.25;;;1.30;;
71566;SDS011;59403;47.456;19.120;2023-02-02T06:51:52;6.43;;;1.60;;
71566;SDS011;59403;47.456;19.120;2023-02-02T06:54:19;8.48;;;2.90;;
71566;SDS011;59403;47.456;19.120;2023-02-02T06:56:46;7.97;;;2.80;;
71566;SDS011;59403;47.456;19.120;2023-02-02T06:59:13;9.95;;;2.87;;
71566;SDS011;59403;47.456;19.120;2023-02-02T07:01:41;8.80;;;2.50;;
71566;SDS011;59403;47.456;19.120;2023-02-02T07:04:08;7.73;;;2.50;;
71566;SDS011;59403;47.456;19.120;2023-02-02T07:06:35;6.50;;;2.60;;
71566;SDS011;59403;47.456;19.120;2023-02-02T07:09:03;4.78;;;1.60;;
71566;SDS011;59403;47.456;19.120;2023-02-02T07:11:30;5.32;;;1.95;;
71566;SDS011;59403;47.456;19.120;2023-02-02T07:13:59;5.78;;;1.62;;
71566;SDS011;59403;47.456;19.120;2023-02-02T07:16:26;3.67;;;0.80;;
71566;SDS011;59403;47.456;19.120;2023-02-02T07:18:55;6.00;;;0.90;;
71566;SDS011;59403;47.456;19.120;2023-02-02T07:21:23;3.20;;;0.95;;
71566;SDS011;59403;47.456;19.120;2023-02-02T07:23:52;8.23;;;1.80;;
71566;SDS011;59403;47.456;19.120;2023-02-02T07:26:19;5.80;;;2.00;;
71566;SDS011;59403;47.456;19.120;2023-02-02T07:28:46;9.13;;;3.17;;
71566;SDS011;59403;47.456;19.120;2023-02-02T07:31:13;4.95;;;1.52;;
71566;SDS011;59403;47.456;19.120;2023-02-02T07:33:42;4.40;;;1.62;;
71566;SDS011;59403;47.456;19.120;2023-02-02T07:36:10;7.47;;;3.30;;
71566;SDS011;59403;47.456;19.120;2023-02-02T07:38:40;5.43;;;1.98;;
71566;SDS011;59403;47.456;19.120;2023-02-02T07:41:07;5.47;;;1.90;;
71566;SDS011;59403;47.456;19.120;2023-02-02T07:43:34;7.85;;;2.35;;
71566;SDS011;59403;47.456;19.120;2023-02-02T07:46:01;8.10;;;2.33;;
71566;SDS011;59403;47.456;19.120;2023-02-02T07:48:30;6.07;;;1.87;;
71566;SDS011;59403;47.456;19.120;2023-02-02T07:50:57;5.85;;;2.35;;
71566;SDS011;59403;47.456;19.120;2023-02-02T07:53:27;4.40;;;1.60;;
71566;SDS011;59403;47.456;19.120;2023-02-02T07:56:03;8.32;;;2.17;;
71566;SDS011;59403;47.456;19.120;2023-02-02T07:58:31;8.93;;;3.03;;
71566;SDS011;59403;47.456;19.120;2023-02-02T08:00:59;4.03;;;1.60;;
71566;SDS011;59403;47.456;19.120;2023-02-02T08:03:27;7.30;;;1.52;;
71566;SDS011;59403;47.456;19.120;2023-02-02T08:05:54;7.17;;;2.40;;
71566;SDS011;59403;47.456;19.120;2023-02-02T08:08:21;7.50;;;2.62;;
71566;SDS011;59403;47.456;19.120;2023-02-02T08:10:49;8.43;;;2.50;;
71566;SDS011;59403;47.456;19.120;2023-02-02T08:13:17;5.95;;;1.60;;
71566;SDS011;59403;47.456;19.120;2023-02-02T08:15:44;4.43;;;1.20;;
71566;SDS011;59403;47.456;19.120;2023-02-02T08:18:11;3.40;;;0.90;;
71566;SDS011;59403;47.456;19.120;2023-02-02T08:20:38;4.35;;;1.25;;
71566;SDS011;59403;47.456;19.120;2023-02-02T08:23:05;4.18;;;1.05;;
71566;SDS011;59403;47.456;19.120;2023-02-02T08:25:38;7.07;;;1.80;;
71566;SDS011;59403;47.456;19.120;2023-02-02T08:28:06;5.82;;;1.80;;
71566;SDS011;59403;47.456;19.120;2023-02-02T08:30:33;8.80;;;2.43;;
71566;SDS011;59403;47.456;19.120;2023-02-02T08:33:00;9.23;;;2.87;;
71566;SDS011;59403;47.456;19.120;2023-02-02T08:35:27;5.37;;;2.22;;
71566;SDS011;59403;47.456;19.120;2023-02-02T08:37:54;9.68;;;3.28;;
71566;SDS011;59403;47.456;19.120;2023-02-02T08:40:20;7.60;;;2.60;;
71566;SDS011;59403;47.456;19.120;2023-02-02T08:42:51;4.70;;;1.37;;
71566;SDS011;59403;47.456;19.120;2023-02-02T08:45:20;5.53;;;1.27;;
71566;SDS011;59403;47.456;19.120;2023-02-02T08:47:47;7.15;;;2.12;;
71566;SDS011;59403;47.456;19.120;2023-02-02T08:50:14;6.53;;;1.62;;
71566;SDS011;59403;47.456;19.120;2023-02-02T08:52:42;5.07;;;0.93;;
71566;SDS011;59403;47.456;19.120;2023-02-02T08:55:09;3.63;;;0.77;;
71566;SDS011;59403;47.456;19.120;2023-02-02T08:57:36;1.77;;;0.37;;
71566;SDS011;59403;47.456;19.120;2023-02-02T09:00:03;2.53;;;0.52;;
71566;SDS011;59403;47.456;19.120;2023-02-02T09:02:32;3.75;;;0.60;;
71566;SDS011;59403;47.456;19.120;2023-02-02T09:04:59;3.67;;;0.52;;
71566;SDS011;59403;47.456;19.120;2023-02-02T09:07:26;1.83;;;0.50;;
71566;SDS011;59403;47.456;19.120;2023-02-02T09:09:53;5.60;;;0.70;;
71566;SDS011;59403;47.456;19.120;2023-02-02T09:12:22;3.97;;;0.68;;
71566;SDS011;59403;47.456;19.120;2023-02-02T09:14:49;4.15;;;0.40;;
71566;SDS011;59403;47.456;19.120;2023-02-02T09:17:16;3.03;;;0.40;;
71566;SDS011;59403;47.456;19.120;2023-02-02T09:19:44;6.37;;;0.70;;
71566;SDS011;59403;47.456;19.120;2023-02-02T09:22:11;3.03;;;0.43;;
71566;SDS011;59403;47.456;19.120;2023-02-02T09:24:38;3.50;;;0.50;;
71566;SDS011;59403;47.456;19.120;2023-02-02T09:27:04;3.80;;;0.43;;
71566;SDS011;59403;47.456;19.120;2023-02-02T09:29:31;3.75;;;0.75;;
71566;SDS011;59403;47.456;19.120;2023-02-02T09:31:58;3.07;;;0.50;;
71566;SDS011;59403;47.456;19.120;2023-02-02T09:34:25;6.78;;;0.60;;
71566;SDS011;59403;47.456;19.120;2023-02-02T09:36:53;4.28;;;0.60;;
71566;SDS011;59403;47.456;19.120;2023-02-02T09:39:20;4.50;;;0.70;;
71566;SDS011;59403;47.456;19.120;2023-02-02T09:47:29;2.25;;;0.35;;
71566;SDS011;59403;47.456;19.120;2023-02-02T09:53:12;2.47;;;0.82;;
71566;SDS011;59403;47.456;19.120;2023-02-02T09:55:45;2.62;;;0.30;;
71566;SDS011;59403;47.456;19.120;2023-02-02T09:58:15;2.23;;;0.60;;
71566;SDS011;59403;47.456;19.120;2023-02-02T10:00:47;3.45;;;0.40;;
71566;SDS011;59403;47.456;19.120;2023-02-02T10:03:22;2.85;;;0.30;;
71566;SDS011;59403;47.456;19.120;2023-02-02T10:05:53;3.53;;;0.43;;
71566;SDS011;59403;47.456;19.120;2023-02-02T10:08:30;1.92;;;0.30;;
71566;SDS011;59403;47.456;19.120;2023-02-02T10:11:01;3.73;;;0.50;;
71566;SDS011;59403;47.456;19.120;2023-02-02T10:13:38;3.97;;;0.50;;
71566;SDS011;59403;47.456;19.120;2023-02-02T10:16:11;6.22;;;0.40;;
71566;SDS011;59403;47.456;19.120;2023-02-02T10:18:44;3.50;;;0.43;;
71566;SDS011;59403;47.456;19.120;2023-02-02T10:21:16;1.40;;;0.35;;
71566;SDS011;59403;47.456;19.120;2023-02-02T10:23:50;2.97;;;0.40;;
71566;SDS011;59403;47.456;19.120;2023-02-02T10:26:19;3.03;;;0.45;;
71566;SDS011;59403;47.456;19.120;2023-02-02T10:29:02;4.07;;;0.62;;
71566;SDS011;59403;47.456;19.120;2023-02-02T10:31:39;2.37;;;0.50;;
71566;SDS011;59403;47.456;19.120;2023-02-02T10:34:14;4.93;;;0.50;;
71566;SDS011;59403;47.456;19.120;2023-02-02T10:36:49;4.50;;;0.70;;
71566;SDS011;59403;47.456;19.120;2023-02-02T10:39:38;3.15;;;0.68;;
71566;SDS011;59403;47.456;19.120;2023-02-02T10:42:14;3.67;;;0.35;;
71566;SDS011;59403;47.456;19.120;2023-02-02T10:44:49;2.80;;;0.85;;
71566;SDS011;59403;47.456;19.120;2023-02-02T10:47:21;1.83;;;0.47;;
71566;SDS011;59403;47.456;19.120;2023-02-02T10:49:53;2.77;;;0.50;;
71566;SDS011;59403;47.456;19.120;2023-02-02T10:52:28;5.22;;;0.70;;
71566;SDS011;59403;47.456;19.120;2023-02-02T10:55:01;3.20;;;0.50;;
71566;SDS011;59403;47.456;19.120;2023-02-02T10:57:44;4.10;;;0.55;;
71566;SDS011;59403;47.456;19.120;2023-02-02T11:00:18;6.40;;;1.17;;
71566;SDS011;59403;47.456;19.120;2023-02-02T11:02:47;4.07;;;1.00;;
71566;SDS011;59403;47.456;19.120;2023-02-02T11:05:17;4.05;;;1.00;;
71566;SDS011;59403;47.456;19.120;2023-02-02T11:08:10;3.15;;;0.40;;
71566;SDS011;59403;47.456;19.120;2023-02-02T11:10:40;3.53;;;0.45;;
71566;SDS011;59403;47.456;19.120;2023-02-02T11:13:10;1.83;;;0.60;;
71566;SDS011;59403;47.456;19.120;2023-02-02T11:15:41;6.07;;;0.53;;
71566;SDS011;59403;47.456;19.120;2023-02-02T11:18:24;4.78;;;0.50;;
71566;SDS011;59403;47.456;19.120;2023-02-02T11:20:53;3.10;;;0.57;;
71566;SDS011;59403;47.456;19.120;2023-02-02T11:23:20;2.75;;;0.40;;
71566;SDS011;59403;47.456;19.120;2023-02-02T11:25:58;4.10;;;0.80;;
71566;SDS011;59403;47.456;19.120;2023-02-02T11:28:30;4.90;;;0.67;;
71566;SDS011;59403;47.456;19.120;2023-02-02T11:30:59;4.07;;;0.57;;
71566;SDS011;59403;47.456;19.120;2023-02-02T11:33:28;2.05;;;0.60;;
71566;SDS011;59403;47.456;19.120;2023-02-02T11:35:58;7.40;;;0.80;;
71566;SDS011;59403;47.456;19.120;2023-02-02T11:38:27;2.92;;;0.50;;
71566;SDS011;59403;47.456;19.120;2023-02-02T11:40:55;3.37;;;0.57;;
71566;SDS011;59403;47.456;19.120;2023-02-02T11:43:29;3.42;;;0.73;;
71566;SDS011;59403;47.456;19.120;2023-02-02T11:45:59;4.93;;;0.60;;
71566;SDS011;59403;47.456;19.120;2023-02-02T11:48:29;4.70;;;0.62;;
71566;SDS011;59403;47.456;19.120;2023-02-02T11:50:59;3.20;;;0.50;;
71566;SDS011;59403;47.456;19.120;2023-02-02T11:53:28;2.67;;;0.50;;
71566;SDS011;59403;47.456;19.120;2023-02-02T11:56:01;3.40;;;0.70;;
71566;SDS011;59403;47.456;19.120;2023-02-02T11:58:41;2.40;;;0.35;;
71566;SDS011;59403;47.456;19.120;2023-02-02T12:01:15;2.85;;;0.40;;
71566;SDS011;59403;47.456;19.120;2023-02-02T12:03:49;2.45;;;0.73;;
71566;SDS011;59403;47.456;19.120;2023-02-02T12:06:18;1.90;;;0.60;;
71566;SDS011;59403;47.456;19.120;2023-02-02T12:08:47;4.40;;;0.50;;
71566;SDS011;59403;47.456;19.120;2023-02-02T12:11:20;2.62;;;0.90;;
71566;SDS011;59403;47.456;19.120;2023-02-02T12:14:01;6.82;;;0.70;;
71566;SDS011;59403;47.456;19.120;2023-02-02T12:16:38;6.03;;;1.00;;
71566;SDS011;59403;47.456;19.120;2023-02-02T12:22:09;6.15;;;1.20;;
71566;SDS011;59403;47.456;19.120;2023-02-02T12:24:50;5.78;;;1.20;;
71566;SDS011;59403;47.456;19.120;2023-02-02T12:27:26;5.55;;;1.52;;
71566;SDS011;59403;47.456;19.120;2023-02-02T12:30:16;5.32;;;1.42;;
71566;SDS011;59403;47.456;19.120;2023-02-02T12:38:51;3.10;;;0.62;;
71566;SDS011;59403;47.456;19.120;2023-02-02T12:41:43;3.10;;;0.50;;
71566;SDS011;59403;47.456;19.120;2023-02-02T12:44:25;5.37;;;0.77;;
71566;SDS011;59403;47.456;19.120;2023-02-02T12:47:07;5.13;;;1.50;;
71566;SDS011;59403;47.456;19.120;2023-02-02T12:49:48;6.45;;;1.27;;
71566;SDS011;59403;47.456;19.120;2023-02-02T12:52:32;6.30;;;1.55;;
71566;SDS011;59403;47.456;19.120;2023-02-02T12:55:14;7.30;;;2.37;;
71566;SDS011;59403;47.456;19.120;2023-02-02T12:57:49;9.60;;;2.80;;
71566;SDS011;59403;47.456;19.120;2023-02-02T13:03:26;7.07;;;2.15;;
71566;SDS011;59403;47.456;19.120;2023-02-02T13:06:10;5.95;;;1.60;;
71566;SDS011;59403;47.456;19.120;2023-02-02T13:08:54;4.18;;;0.80;;
71566;SDS011;59403;47.456;19.120;2023-02-02T13:11:30;5.80;;;1.27;;
71566;SDS011;59403;47.456;19.120;2023-02-02T13:14:05;4.13;;;0.80;;
71566;SDS011;59403;47.456;19.120;2023-02-02T13:16:36;2.45;;;0.73;;
71566;SDS011;59403;47.456;19.120;2023-02-02T13:19:11;5.28;;;0.93;;
71566;SDS011;59403;47.456;19.120;2023-02-02T13:21:41;4.55;;;0.52;;
71566;SDS011;59403;47.456;19.120;2023-02-02T13:24:11;4.20;;;1.10;;
71566;SDS011;59403;47.456;19.120;2023-02-02T13:26:46;1.53;;;0.70;;
71566;SDS011;59403;47.456;19.120;2023-02-02T13:29:17;5.40;;;1.12;;
71566;SDS011;59403;47.456;19.120;2023-02-02T13:31:54;3.15;;;1.10;;
71566;SDS011;59403;47.456;19.120;2023-02-02T13:34:28;3.15;;;0.93;;
71566;SDS011;59403;47.456;19.120;2023-02-02T13:37:09;2.55;;;0.90;;
71566;SDS011;59403;47.456;19.120;2023-02-02T13:39:43;5.17;;;1.50;;
71566;SDS011;59403;47.456;19.120;2023-02-02T13:42:15;2.62;;;0.85;;
71566;SDS011;59403;47.456;19.120;2023-02-02T13:44:52;4.32;;;0.90;;
71566;SDS011;59403;47.456;19.120;2023-02-02T13:47:25;4.60;;;0.90;;
71566;SDS011;59403;47.456;19.120;2023-02-02T13:50:05;3.40;;;0.77;;
71566;SDS011;59403;47.456;19.120;2023-02-02T13:52:42;3.93;;;1.30;;
71566;SDS011;59403;47.456;19.120;2023-02-02T13:55:29;3.80;;;0.90;;
71566;SDS011;59403;47.456;19.120;2023-02-02T13:58:21;5.40;;;0.68;;
71566;SDS011;59403;47.456;19.120;2023-02-02T14:01:13;4.95;;;1.15;;
71566;SDS011;59403;47.456;19.120;2023-02-02T14:03:41;3.83;;;0.95;;
71566;SDS011;59403;47.456;19.120;2023-02-02T14:06:12;3.93;;;0.70;;
71566;SDS011;59403;47.456;19.120;2023-02-02T14:08:44;2.28;;;0.60;;
71566;SDS011;59403;47.456;19.120;2023-02-02T14:11:21;3.83;;;0.60;;
71566;SDS011;59403;47.456;19.120;2023-02-02T14:13:52;5.25;;;1.23;;
71566;SDS011;59403;47.456;19.120;2023-02-02T14:16:49;7.60;;;1.27;;
71566;SDS011;59403;47.456;19.120;2023-02-02T14:22:18;4.03;;;1.35;;
71566;SDS011;59403;47.456;19.120;2023-02-02T14:28:06;4.43;;;1.50;;
71566;SDS011;59403;47.456;19.120;2023-02-02T14:30:36;5.97;;;1.55;;
71566;SDS011;59403;47.456;19.120;2023-02-02T14:33:17;5.03;;;1.10;;
71566;SDS011;59403;47.456;19.120;2023-02-02T14:36:02;3.10;;;0.82;;
71566;SDS011;59403;47.456;19.120;2023-02-02T14:47:49;6.63;;;1.40;;
71566;SDS011;59403;47.456;19.120;2023-02-02T14:50:22;6.00;;;1.35;;
71566;SDS011;59403;47.456;19.120;2023-02-02T14:53:02;6.62;;;1.15;;
71566;SDS011;59403;47.456;19.120;2023-02-02T14:55:48;5.30;;;1.58;;
71566;SDS011;59403;47.456;19.120;2023-02-02T14:58:28;7.95;;;1.42;;
71566;SDS011;59403;47.456;19.120;2023-02-02T15:01:04;3.73;;;1.47;;
71566;SDS011;59403;47.456;19.120;2023-02-02T15:03:36;3.47;;;0.70;;
71566;SDS011;59403;47.456;19.120;2023-02-02T15:06:13;5.28;;;1.10;;
71566;SDS011;59403;47.456;19.120;2023-02-02T15:14:42;3.70;;;0.90;;
71566;SDS011;59403;47.456;19.120;2023-02-02T15:17:18;5.78;;;1.70;;
71566;SDS011;59403;47.456;19.120;2023-02-02T15:19:50;3.70;;;1.37;;
71566;SDS011;59403;47.456;19.120;2023-02-02T15:22:22;6.93;;;2.10;;
71566;SDS011;59403;47.456;19.120;2023-02-02T15:24:55;5.18;;;1.17;;
71566;SDS011;59403;47.456;19.120;2023-02-02T15:27:25;5.67;;;0.80;;
71566;SDS011;59403;47.456;19.120;2023-02-02T15:29:54;5.40;;;1.30;;
71566;SDS011;59403;47.456;19.120;2023-02-02T15:32:26;5.60;;;1.10;;
71566;SDS011;59403;47.456;19.120;2023-02-02T15:34:57;4.00;;;0.95;;
71566;SDS011;59403;47.456;19.120;2023-02-02T15:37:29;4.95;;;1.20;;
71566;SDS011;59403;47.456;19.120;2023-02-02T15:40:04;3.10;;;1.00;;
71566;SDS011;59403;47.456;19.120;2023-02-02T15:42:41;6.20;;;2.47;;
71566;SDS011;59403;47.456;19.120;2023-02-02T15:45:29;6.82;;;2.10;;